Terminal Aerodrome Forecast
Issued by NWS

Home | Current Version | Previous Version | Text Only | Print | Product List | Glossary On
Versions: 1 2 3 4 5 6 7 8 9 10 11 12
581
FTUS46 KSGX 131739
TAFONT
TAF
KONT 131739Z 1318/1424 VRB05KT P6SM SCT200
     FM132100 27007KT P6SM SCT200
     FM140100 VRB05KT P6SM FEW200
     FM142100 29010KT P6SM SKC=

USA.gov is the U.S. government's official web portal to all federal, state and local government web resources and services.